Latest Weather Observations for Roxby Downs

IDS60801

Issued at 6:05 am CST Tuesday 2 September 2014 (issued every 30 minutes, with the page automatically refreshed every 10 minutes)

About weather observations | Map of weather stations | Latest weather observations for SA | Other Formats
Station Details ID: 016096 Name: OLYMPIC DAM AERODROME Lat: -30.48 Lon: 136.88 Height: 98.5 m
Data from the previous 72 hours. | See also: Recent months at Roxby Downs
Date/Time
CST
Temp
°C
App
Temp
°C
Dew
Point
Rel
Hum
%
Delta-T
°C
Wind Press
QNH
hPa
Press
MSL
hPa
Rain
since 9 am
mm
Dir
 
Spd
km/h
Gust
km/h
Spd
kts
Gust
kts
02/06:00am 3.6 0.2 2.0 89 0.6 S 9 9 5 5 1025.6 1025.5 0.2
02/05:30am 4.8 2.1 2.8 87 0.8 S 6 7 3 4 1025.4 1025.3 0.2
02/05:00am 5.7 2.2 3.4 85 1.0 SW 11 13 6 7 1025.0 1024.9 0.2
02/04:30am 6.4 2.9 3.6 82 1.2 SSW 11 13 6 7 1024.9 1024.8 0.2
02/04:00am 7.1 2.9 3.7 79 1.5 SW 15 20 8 11 1024.5 1024.4 0.2
02/03:30am 7.4 3.6 3.8 78 1.5 SSW 13 17 7 9 1024.1 1024.0 0.2
02/03:00am 7.8 4.0 3.8 76 1.7 SSW 13 17 7 9 1024.0 1023.9 0.2
02/02:30am 7.9 3.7 3.9 76 1.7 SSW 15 17 8 9 1024.2 1024.1 0.2
02/02:00am 8.2 4.4 4.0 75 1.8 SW 13 15 7 8 1024.3 1024.2 0.2
02/01:30am 9.6 4.5 4.0 68 2.5 SSW 20 28 11 15 1024.3 1024.2 0.2
02/01:00am 10.1 5.0 4.0 66 2.7 SSW 20 26 11 14 1024.1 1024.0 0.2
02/12:30am 10.5 5.0 4.2 65 2.8 SSW 22 32 12 17 1024.1 1024.0 0.2
02/12:00am 10.8 5.8 4.7 66 2.8 SW 20 30 11 16 1024.2 1024.1 0.2
 
Date/Time
CST
Temp
°C
App
Temp
°C
Dew
Point
Rel
Hum
%
Delta-T
°C
Wind Press
QNH
hPa
Press
MSL
hPa
Rain
since 9 am
mm
Dir
 
Spd
km/h
Gust
km/h
Spd
kts
Gust
kts
01/11:30pm 11.1 6.2 5.0 66 2.8 SSW 20 28 11 15 1023.9 1023.8 0.2
01/11:00pm 11.5 6.3 5.4 66 2.8 SSW 22 30 12 16 1023.6 1023.5 0.2
01/10:30pm 12.0 6.9 6.1 67 2.8 SSW 22 30 12 16 1023.4 1023.3 0.2
01/10:00pm 12.0 7.9 6.3 68 2.7 SSW 17 22 9 12 1023.3 1023.2 0.2
01/09:30pm 12.8 7.4 6.4 65 3.0 SSW 24 30 13 16 1022.8 1022.7 0.2
01/09:00pm 13.4 7.2 6.0 61 3.5 SSW 28 37 15 20 1022.3 1022.2 0.2
01/08:30pm 13.5 8.9 6.6 63 3.3 SSW 20 28 11 15 1021.8 1021.6 0.2
01/08:00pm 14.1 7.9 6.2 59 3.8 SW 28 35 15 19 1021.3 1021.1 0.2
01/07:30pm 14.7 8.8 6.0 56 4.2 SSW 26 35 14 19 1020.7 1020.5 0.2
01/07:12pm 15.6 9.3 5.8 52 4.7 SW 28 48 15 26 1020.2 1020.0 0.2
01/07:00pm 15.2 10.7 6.2 55 4.4 SW 19 24 10 13 1019.8 1019.6 0.2
01/06:30pm 15.1 10.9 7.6 61 3.7 SW 19 24 10 13 1019.1 1018.9 0.2
01/06:05pm 15.1 9.5 8.8 66 3.2 SW 28 48 15 26 1018.6 1018.4 0.2
01/06:00pm 16.7 12.0 7.9 56 4.5 SW 22 35 12 19 1018.5 1018.3 0.2
01/05:30pm 17.0 11.8 8.9 59 4.2 SW 26 35 14 19 1018.0 1017.8 0.2
01/05:00pm 17.6 12.8 9.0 57 4.5 SW 24 33 13 18 1017.6 1017.4 0.2
01/04:30pm 16.9 10.6 9.6 62 3.8 WSW 33 46 18 25 1017.4 1017.2 0.2
01/04:00pm 18.2 12.5 8.2 52 5.2 WSW 28 39 15 21 1016.9 1016.7 0.2
01/03:30pm 18.4 12.6 8.1 51 5.3 SW 28 41 15 22 1016.7 1016.5 0.2
01/03:00pm 17.9 12.5 8.2 53 5.0 SW 26 33 14 18 1016.6 1016.4 0.2
01/02:30pm 17.6 11.9 8.2 54 4.8 SW 28 41 15 22 1016.4 1016.2 0.2
01/02:00pm 17.5 11.6 9.2 58 4.3 SW 30 39 16 21 1016.4 1016.2 0.2
01/01:30pm 17.9 12.2 8.5 54 4.9 SW 28 37 15 20 1016.2 1016.0 0.2
01/01:00pm 17.6 13.5 10.2 62 3.9 WSW 22 32 12 17 1016.4 1016.2 0.0
01/12:30pm 16.9 13.8 10.3 65 3.5 WSW 17 22 9 12 1016.5 1016.3 0.0
01/12:00pm 16.1 12.7 11.3 73 2.6 SW 20 26 11 14 1017.0 1016.8 0.0
01/11:30am 15.8 14.3 12.0 78 2.1 WSW 11 17 6 9 1017.2 1017.0 0.0
01/11:00am 14.6 11.9 11.7 83 1.6 SSW 17 22 9 12 1016.7 1016.5 0.0
01/10:30am 16.4 12.1 9.3 63 3.7 SSW 22 30 12 16 1017.6 1017.4 0.0
01/10:00am 16.9 12.2 9.3 61 4.0 S 24 32 13 17 1016.6 1016.4 0.0
01/09:30am 17.4 11.2 9.3 59 4.2 SSW 32 41 17 22 1017.1 1016.9 0.0
01/09:00am 17.6 12.2 9.5 59 4.3 S 28 41 15 22 1016.5 1016.5 0.0
01/08:30am 16.8 13.0 9.0 60 4.0 SSW 19 24 10 13 1016.2 1016.2 0.0
01/08:00am 15.8 11.8 8.3 61 3.8 SSW 19 24 10 13 1015.2 1015.2 0.0
01/07:30am 15.2 11.1 7.7 61 3.7 SSW 19 24 10 13 1015.0 1015.0 0.0
01/07:00am 14.7 10.8 7.0 60 3.8 SSW 17 20 9 11 1014.4 1014.4 0.0
01/06:30am 14.4 10.3 6.3 58 3.9 SSW 17 22 9 12 1014.1 1014.1 0.0
01/06:00am 13.4 10.1 4.3 54 4.2 SSW 11 15 6 8 1013.7 1013.7 0.0
01/05:30am 14.0 9.1 4.0 51 4.6 SW 19 26 10 14 1013.5 1013.5 0.0
01/05:00am 14.1 9.5 3.6 49 4.8 SSW 17 20 9 11 1012.9 1012.9 0.0
01/04:30am 12.3 8.9 1.6 48 4.6 S 9 11 5 6 1012.1 1012.1 0.0
01/04:00am 12.6 9.4 1.0 45 4.9 SW 7 11 4 6 1011.8 1011.8 0.0
01/03:30am 13.6 9.2 0.6 41 5.5 SW 13 15 7 8 1011.8 1011.8 0.0
01/03:00am 13.5 9.7 -0.5 38 5.8 SSW 9 13 5 7 1011.7 1011.7 0.0
01/02:30am 13.0 9.6 -1.7 36 5.9 SE 6 9 3 5 1011.5 1011.5 0.0
01/02:00am 12.8 8.8 -2.6 34 6.0 S 9 9 5 5 1012.0 1012.0 0.0
01/01:30am 15.8 11.8 -2.2 29 7.3 S 9 13 5 7 1012.5 1012.5 0.0
01/01:00am 16.3 12.8 -2.7 27 7.7 WNW 6 13 3 7 1012.9 1012.9 0.0
01/12:30am 17.7 11.8 -2.6 25 8.4 WSW 19 24 10 13 1013.1 1013.1 0.0
01/12:00am 18.2 14.1 -3.2 23 8.8 W 9 15 5 8 1012.1 1012.1 0.0
 
Date/Time
CST
Temp
°C
App
Temp
°C
Dew
Point
Rel
Hum
%
Delta-T
°C
Wind Press
QNH
hPa
Press
MSL
hPa
Rain
since 9 am
mm
Dir
 
Spd
km/h
Gust
km/h
Spd
kts
Gust
kts
31/11:30pm 19.6 13.6 -2.7 22 9.3 N 19 26 10 14 1011.7 1011.7 0.0
31/11:00pm 19.3 13.8 -2.3 23 9.1 N 17 20 9 11 1011.4 1011.4 0.0
31/10:30pm 19.4 13.8 -2.8 22 9.3 NNE 17 22 9 12 1011.5 1011.5 0.0
31/10:00pm 20.0 14.1 -2.3 22 9.4 NNE 19 24 10 13 1011.6 1011.6 0.0
31/09:30pm 20.4 14.5 -2.6 21 9.7 NNE 19 26 10 14 1011.6 1011.6 0.0
31/09:00pm 20.9 14.8 -2.2 21 9.9 NNE 20 26 11 14 1011.7 1011.7 0.0
31/08:30pm 21.3 15.2 -2.5 20 10.2 NNE 20 30 11 16 1011.8 1011.8 0.0
31/08:00pm 22.0 16.1 -2.0 20 10.4 NNE 19 26 10 14 1011.8 1011.8 0.0
31/07:30pm 22.4 16.9 -2.3 19 10.7 NNE 17 20 9 11 1011.8 1011.8 0.0
31/07:00pm 23.3 18.2 -2.3 18 11.2 N 15 19 8 10 1012.0 1012.0 0.0
31/06:30pm 24.5 18.4 -2.1 17 11.8 N 20 26 11 14 1011.6 1011.6 0.0
31/06:00pm 25.7 18.9 -2.0 16 12.4 N 24 33 13 18 1011.7 1011.7 0.0
31/05:30pm 26.6 19.4 -2.1 15 12.9 N 26 35 14 19 1011.8 1011.8 0.0
31/05:00pm 27.0 19.3 -2.7 14 13.3 N 28 35 15 19 1011.9 1011.9 0.0
31/04:30pm 27.7 20.5 -2.2 14 13.6 N 26 41 14 22 1011.9 1011.9 0.0
31/04:00pm 27.2 20.3 -2.6 14 13.4 N 24 35 13 19 1012.2 1012.2 0.0
31/03:30pm 27.6 20.2 -3.3 13 13.7 N 26 35 14 19 1012.6 1012.6 0.0
31/03:00pm 27.3 20.0 -2.5 14 13.4 N 26 39 14 21 1012.6 1012.6 0.0
31/02:42pm 27.7 20.1 -2.2 14 13.6 N 28 46 15 25 1012.9 1012.9 0.0
31/02:30pm 27.5 20.3 -2.3 14 13.5 N 26 39 14 21 1013.2 1013.2 0.0
31/02:00pm 26.8 18.7 -2.9 14 13.2 N 30 41 16 22 1013.5 1013.5 0.0
31/01:30pm 26.5 18.1 -2.2 15 12.9 N 32 46 17 25 1014.1 1014.1 0.0
31/01:24pm 26.9 19.3 -1.9 15 13.0 NNW 28 46 15 25 1014.5 1014.5 0.0
31/01:00pm 26.3 18.7 -2.4 15 12.8 N 28 41 15 22 1014.8 1014.8 0.0
31/12:30pm 25.9 18.3 -1.8 16 12.5 N 28 43 15 23 1015.5 1015.6 0.0
31/12:00pm 25.5 18.0 -1.3 17 12.1 N 28 39 15 21 1016.2 1016.2 0.0
31/11:30am 24.7 17.2 -1.2 18 11.7 N 28 41 15 22 1016.9 1016.9 0.0
31/11:00am 24.7 17.7 -0.4 19 11.5 N 26 35 14 19 1017.4 1017.4 0.0
31/10:30am 23.4 16.0 -0.8 20 10.9 N 28 37 15 20 1017.8 1017.8 0.0
31/10:00am 22.5 15.4 -0.9 21 10.4 N 26 33 14 18 1018.0 1018.0 0.0
31/09:30am 21.0 14.3 -0.9 23 9.6 N 24 33 13 18 1018.2 1018.2 0.0
31/09:00am 19.3 13.3 -1.2 25 8.8 N 20 28 11 15 1018.4 1018.4 0.0
31/08:30am 17.8 11.9 -0.9 28 8.0 N 20 30 11 16 1018.1 1018.1 0.0
31/08:00am 16.0 10.7 -0.7 32 7.0 N 17 26 9 14 1018.1 1018.1 0.0
31/07:30am 13.4 8.5 -0.6 38 5.8 N 15 19 8 10 1017.8 1017.8 0.0
31/07:00am 10.7 6.9 -1.0 44 4.7 NNE 9 13 5 7 1017.5 1017.5 0.0
31/06:30am 10.5 6.6 -1.2 44 4.6 N 9 11 5 6 1017.4 1017.4 0.0
31/06:00am 11.4 7.2 -1.0 42 5.0 NNE 11 15 6 8 1017.0 1017.0 0.0
31/05:30am 11.2 7.0 -1.2 42 4.9 NNE 11 13 6 7 1016.9 1016.9 0.0
31/05:00am 10.8 6.5 -1.9 41 4.9 NNE 11 13 6 7 1016.9 1016.9 0.0
31/04:30am 11.4 7.1 -1.7 40 5.2 N 11 13 6 7 1016.9 1016.9 0.0
31/04:00am 11.6 7.3 -1.9 39 5.3 NNE 11 13 6 7 1016.9 1016.9 0.0
31/03:30am 11.3 6.9 -2.1 39 5.2 NNE 11 11 6 6 1017.0 1017.0 0.0
31/03:00am 11.8 7.4 -2.4 37 5.5 NNE 11 13 6 7 1017.2 1017.2 0.0
31/02:30am 12.7 7.9 -2.3 35 5.9 N 13 17 7 9 1017.5 1017.5 0.0
31/02:00am 12.4 7.6 -2.6 35 5.9 NNE 13 15 7 8 1017.8 1017.8 0.0
31/01:30am 12.4 8.0 -2.6 35 5.8 NNE 11 13 6 7 1018.1 1018.1 0.0
31/01:00am 13.2 8.3 -3.1 32 6.3 NNE 13 15 7 8 1018.6 1018.6 0.0
31/12:30am 12.4 7.8 -3.8 32 6.1 NNE 11 13 6 7 1018.9 1018.9 0.0
31/12:00am 12.5 8.3 -4.1 31 6.2 N 9 11 5 6 1019.0 1019.0 0.0
 
Date/Time
CST
Temp
°C
App
Temp
°C
Dew
Point
Rel
Hum
%
Delta-T
°C
Wind Press
QNH
hPa
Press
MSL
hPa
Rain
since 9 am
mm
Dir
 
Spd
km/h
Gust
km/h
Spd
kts
Gust
kts
30/11:30pm 13.7 9.1 -4.0 29 6.8 NNE 11 15 6 8 1019.2 1019.2 0.0
30/11:00pm 13.4 9.2 -4.2 29 6.7 N 9 11 5 6 1019.4 1019.4 0.0
30/10:30pm 14.5 9.9 -3.8 28 7.1 N 11 13 6 7 1019.5 1019.5 0.0
30/10:00pm 15.2 10.3 -3.6 27 7.4 N 13 15 7 8 1019.6 1019.6 0.0
30/09:30pm 15.9 11.3 -4.1 25 7.8 N 11 13 6 7 1019.7 1019.7 0.0
30/09:00pm 16.7 12.1 -3.9 24 8.1 N 11 15 6 8 1019.6 1019.6 0.0
30/08:30pm 17.1 12.1 -4.2 23 8.4 N 13 15 7 8 1019.7 1019.7 0.0
30/08:00pm 16.7 12.4 -5.1 22 8.4 NNE 9 11 5 6 1019.7 1019.7 0.0
30/07:30pm 18.1 13.8 -5.2 20 9.1 NNE 9 11 5 6 1019.7 1019.7 0.0
30/07:00pm 19.2 14.5 -5.0 19 9.6 NNE 11 13 6 7 1019.4 1019.4 0.0
30/06:30pm 20.4 15.7 -4.7 18 10.1 NE 11 15 6 8 1019.1 1019.1 0.0
30/06:00pm 21.7 16.7 -4.4 17 10.7 NE 13 15 7 8 1019.1 1019.1 0.0
30/05:30pm 22.9 17.4 -5.1 15 11.5 NNE 15 20 8 11 1019.1 1019.1 0.0
30/05:00pm 23.7 17.5 -5.3 14 12.0 NNE 19 26 10 14 1019.1 1019.1 0.0
30/04:30pm 24.0 17.8 -5.1 14 12.1 N 19 26 10 14 1019.0 1019.0 0.0
30/04:00pm 24.2 17.9 -4.0 15 12.0 N 20 30 11 16 1019.2 1019.2 0.0
30/03:30pm 24.5 18.1 -4.7 14 12.3 N 20 30 11 16 1019.3 1019.3 0.0
30/03:00pm 24.8 18.7 -3.6 15 12.2 N 19 32 10 17 1019.5 1019.5 0.0
30/02:30pm 24.2 18.0 -3.2 16 11.8 N 20 30 11 16 1019.7 1019.7 0.0
30/02:00pm 24.6 18.0 -2.9 16 12.0 NNE 22 33 12 18 1019.8 1019.8 0.0
30/01:30pm 24.7 18.6 -2.0 17 11.8 N 20 35 11 19 1020.6 1020.6 0.0
30/01:00pm 23.9 17.5 -1.8 18 11.4 N 22 37 12 20 1021.4 1021.4 0.0
30/12:30pm 23.8 17.0 -1.9 18 11.3 N 24 41 13 22 1022.0 1022.0 0.0
30/12:00pm 23.5 16.3 -2.2 18 11.2 N 26 35 14 19 1022.3 1022.3 0.0
30/11:30am 24.0 17.2 -1.8 18 11.4 NNE 24 33 13 18 1022.8 1022.8 0.0
30/11:00am 23.1 16.7 -1.8 19 11.0 N 22 33 12 18 1023.3 1023.3 0.0
30/10:30am 22.4 16.5 -1.0 21 10.3 N 20 28 11 15 1023.9 1024.0 0.0
30/10:00am 21.6 16.0 0.2 24 9.7 NNE 19 26 10 14 1023.9 1024.0 0.0
30/09:30am 19.7 14.6 0.7 28 8.5 NNE 17 20 9 11 1024.2 1024.3 0.0
30/09:00am 18.4 13.3 1.0 31 7.7 N 17 26 9 14 1024.4 1024.5 0.0
30/08:30am 15.9 12.3 0.9 36 6.5 NNE 9 11 5 6 1024.3 1024.4 0.0
30/08:00am 13.2 9.9 0.3 41 5.4 NNE 7 11 4 6 1024.0 1024.1 0.0
30/07:30am 9.3 5.6 -0.3 51 3.8 NE 9 11 5 6 1023.9 1024.0 0.0
30/07:23am 7.8 4.1 -0.2 57 3.1 NE 9 11 5 6 1023.9 1024.0 0.0
30/07:00am 2.6 -1.6 -3.9 62 2.2 NE 9 11 5 6 1023.8 1023.8 0.0
30/06:30am 2.7 0.1 -4.5 59 2.4 CALM 0 0 0 0 1023.7 1023.7 0.0

Other Formats:

Comma delimited format used in spreadsheet applications
http://www.bom.gov.au/fwo/IDS60801/IDS60801.95658.axf

JavaScript Object Notation format (JSON) in row-major order
http://www.bom.gov.au/fwo/IDS60801/IDS60801.95658.json